Time;durP1;ratioP1;P1;durP2;ratioP2;P2;SDS_P1;SDS_P2;PMS_P1;PMS_P2;Temp;Humidity;BMP_temperature;BMP_pressure;BME280_temperature;BME280_humidity;BME280_pressure;Samples;Min_cycle;Max_cycle;Signal;HPM_P1;HPM_P2
2022/11/02 00:01:49;;;;;;;10.35;6.00;;;;;;;11.68;100.00;101122.19;5031326;28;20049;-63
2022/11/02 00:04:16;;;;;;;10.23;6.55;;;;;;;11.68;100.00;101122.19;5032083;28;20056;-64
2022/11/02 00:06:43;;;;;;;9.85;6.80;;;;;;;11.65;100.00;101128.47;5030003;28;20455;-64
2022/11/02 00:09:10;;;;;;;14.88;7.22;;;;;;;11.53;100.00;101129.19;5025201;28;20076;-65
2022/11/02 00:11:37;;;;;;;14.07;7.32;;;;;;;11.44;100.00;101127.03;5039036;28;20073;-64
2022/11/02 00:14:05;;;;;;;15.27;7.32;;;;;;;11.35;100.00;101135.44;5029438;28;20632;-64
2022/11/02 00:16:32;;;;;;;13.65;8.15;;;;;;;11.23;100.00;101131.69;5030557;28;20055;-64
2022/11/02 00:19:00;;;;;;;10.40;7.15;;;;;;;11.26;100.00;101128.88;5031561;28;20056;-64
2022/11/02 00:21:27;;;;;;;12.55;7.60;;;;;;;11.30;100.00;101127.78;5031872;28;20466;-65
2022/11/02 00:23:56;;;;;;;12.02;7.38;;;;;;;11.27;100.00;101124.47;5029562;28;20425;-64
2022/11/02 00:26:23;;;;;;;8.57;5.93;;;;;;;11.19;100.00;101129.28;5033804;28;20053;-65
2022/11/02 00:28:51;;;;;;;15.75;7.57;;;;;;;11.08;100.00;101136.00;5032094;28;20140;-65
2022/11/02 00:31:18;;;;;;;11.32;7.15;;;;;;;11.06;100.00;101127.28;5027722;28;20442;-65
2022/11/02 00:33:46;;;;;;;10.48;7.07;;;;;;;11.10;100.00;101128.00;5031183;28;20049;-64
2022/11/02 00:36:17;;;;;;;10.18;7.32;;;;;;;11.04;100.00;101123.91;5031950;28;20103;-64
2022/11/02 00:38:44;;;;;;;10.10;7.05;;;;;;;10.92;100.00;101124.53;5030663;28;20045;-64
2022/11/02 00:41:11;;;;;;;12.82;6.93;;;;;;;10.86;100.00;101135.41;5026625;28;20046;-64
2022/11/02 00:43:38;;;;;;;16.98;7.85;;;;;;;10.79;100.00;101134.84;5032344;28;20522;-63
2022/11/02 00:46:06;;;;;;;9.43;6.53;;;;;;;10.75;100.00;101135.94;5030212;28;20467;-64
2022/11/02 00:48:33;;;;;;;11.18;6.50;;;;;;;10.74;100.00;101133.41;5031730;28;20145;-64
2022/11/02 00:51:00;;;;;;;11.38;7.20;;;;;;;10.73;100.00;101121.16;5031727;28;20056;-64
2022/11/02 00:53:27;;;;;;;12.48;6.47;;;;;;;10.73;100.00;101127.28;5027578;28;20063;-64
2022/11/02 00:55:54;;;;;;;12.23;6.47;;;;;;;10.71;100.00;101136.19;5033655;28;20045;-64
2022/11/02 00:58:23;;;;;;;9.88;6.07;;;;;;;10.74;100.00;101125.50;5032927;28;20115;-64
2022/11/02 01:00:50;;;;;;;9.60;7.05;;;;;;;10.75;100.00;101135.94;5022055;28;20042;-64
2022/11/02 01:03:17;;;;;;;7.65;4.97;;;;;;;10.76;100.00;101134.16;5031845;28;20528;-64
2022/11/02 01:05:44;;;;;;;10.27;5.97;;;;;;;10.68;100.00;101131.94;5031657;28;20167;-64
2022/11/02 01:08:11;;;;;;;7.53;5.75;;;;;;;10.66;100.00;101128.53;5025994;28;20068;-64
2022/11/02 01:10:38;;;;;;;9.32;5.70;;;;;;;10.56;100.00;101124.66;5030457;28;20195;-64
2022/11/02 01:13:11;;;;;;;9.60;5.00;;;;;;;10.52;100.00;101120.47;5028890;28;20140;-64
2022/11/02 01:15:38;;;;;;;9.18;4.90;;;;;;;10.52;100.00;101126.59;5029495;28;20140;-64
2022/11/02 01:18:06;;;;;;;11.27;5.22;;;;;;;10.49;100.00;101115.34;5030652;28;20063;-64
2022/11/02 01:20:33;;;;;;;11.07;5.13;;;;;;;10.53;100.00;101122.16;5031189;28;20057;-62
2022/11/02 01:23:00;;;;;;;10.27;5.97;;;;;;;10.48;100.00;101129.44;5035323;28;20049;-64
2022/11/02 01:25:27;;;;;;;8.43;5.10;;;;;;;10.47;100.00;101133.88;5034858;28;20676;-62
2022/11/02 01:27:55;;;;;;;9.07;4.97;;;;;;;10.41;100.00;101133.34;5031403;28;20054;-64
2022/11/02 01:30:22;;;;;;;5.97;4.53;;;;;;;10.40;100.00;101129.81;5033368;28;20054;-64
2022/11/02 01:32:49;;;;;;;10.38;4.60;;;;;;;10.47;100.00;101133.88;5029456;28;20049;-64
2022/11/02 01:35:16;;;;;;;6.82;4.78;;;;;;;10.39;100.00;101128.97;5030889;28;20049;-64
2022/11/02 01:37:43;;;;;;;8.93;5.05;;;;;;;10.32;100.00;101132.03;5034135;28;20064;-63
2022/11/02 01:40:10;;;;;;;6.68;4.82;;;;;;;10.27;100.00;101126.97;5029500;28;20041;-63
2022/11/02 01:42:37;;;;;;;8.15;3.90;;;;;;;10.29;100.00;101129.53;5033034;28;20055;-61
2022/11/02 01:45:05;;;;;;;8.35;4.90;;;;;;;10.31;100.00;101117.13;5031548;28;20136;-61
2022/11/02 01:47:36;;;;;;;11.35;4.50;;;;;;;10.22;100.00;101123.69;5029586;28;20414;-63
2022/11/02 01:50:09;;;;;;;11.32;4.97;;;;;;;10.24;100.00;101111.34;5037694;28;20041;-62
2022/11/02 01:52:37;;;;;;;9.10;5.13;;;;;;;10.25;100.00;101105.13;5027668;28;20050;-63
2022/11/02 01:55:18;;;;;;;9.27;4.32;;;;;;;10.33;100.00;101108.25;5034750;28;20045;-64
2022/11/02 01:57:54;;;;;;;8.32;4.53;;;;;;;10.24;100.00;101108.72;5032979;28;20429;-64
2022/11/02 02:00:21;;;;;;;9.43;4.32;;;;;;;10.12;100.00;101104.84;5031231;28;20041;-64
2022/11/02 02:03:05;;;;;;;8.88;4.68;;;;;;;10.09;100.00;101105.03;5035918;28;20530;-64
2022/11/02 02:05:34;;;;;;;5.75;3.60;;;;;;;10.13;100.00;101106.59;5015181;28;20406;-63
2022/11/02 02:08:04;;;;;;;6.07;4.18;;;;;;;10.20;100.00;101098.38;5017416;28;20050;-63
2022/11/02 02:10:35;;;;;;;7.03;3.92;;;;;;;10.12;100.00;101102.22;5031724;28;20529;-64
2022/11/02 02:13:04;;;;;;;7.72;3.58;;;;;;;10.07;100.00;101100.75;5032669;28;20132;-63
2022/11/02 02:15:49;;;;;;;4.57;3.45;;;;;;;10.05;100.00;101107.88;5027063;28;20087;-64
2022/11/02 02:18:25;;;;;;;7.95;3.40;;;;;;;9.93;100.00;101100.59;5027618;28;20061;-63
2022/11/02 02:21:09;;;;;;;;;;;;;;;9.96;100.00;101096.03;5027395;28;20054;-64
2022/11/02 02:23:45;;;;;;;6.72;3.55;;;;;;;10.06;100.00;101093.81;5028697;28;20009;-65
2022/11/02 02:26:44;;;;;;;7.13;3.58;;;;;;;10.11;100.00;101095.28;5031949;28;20516;-64
2022/11/02 02:29:36;;;;;;;10.70;3.83;;;;;;;10.05;100.00;101103.47;5027025;28;20058;-64
2022/11/02 02:32:19;;;;;;;6.03;3.40;;;;;;;9.99;99.94;101095.88;5028025;28;20332;-63
2022/11/02 02:34:50;;;;;;;8.63;4.13;;;;;;;10.00;100.00;101094.97;5022045;28;20073;-65
2022/11/02 02:37:23;;;;;;;13.43;3.90;;;;;;;9.89;99.95;101095.47;5026947;28;20077;-63
2022/11/02 02:40:04;;;;;;;6.30;3.88;;;;;;;9.86;100.00;101090.38;5028244;28;20730;-64
2022/11/02 02:43:02;;;;;;;8.70;3.60;;;;;;;9.93;99.85;101090.91;5027260;28;20522;-63
2022/11/02 02:45:36;;;;;;;5.80;3.22;;;;;;;9.82;99.17;101088.81;5028602;28;20049;-63
2022/11/02 02:48:11;;;;;;;8.95;3.15;;;;;;;9.73;99.87;101089.25;5029642;28;20065;-64
2022/11/02 02:50:46;;;;;;;8.30;4.22;;;;;;;9.69;99.88;101089.47;5027275;28;20051;-65
2022/11/02 02:53:14;;;;;;;7.25;3.47;;;;;;;9.62;100.00;101091.53;5026382;28;20113;-64
2022/11/02 02:55:44;;;;;;;8.30;3.45;;;;;;;9.69;100.00;101090.34;5033044;28;20060;-64
2022/11/02 02:58:16;;;;;;;9.95;3.70;;;;;;;9.66;100.00;101089.63;5029317;28;20140;-64
2022/11/02 03:00:43;;;;;;;10.13;5.40;;;;;;;9.67;99.68;101083.44;5030724;28;20045;-64
2022/11/02 03:03:20;;;;;;;7.18;3.55;;;;;;;9.70;99.93;101081.50;5034959;28;20127;-64
2022/11/02 03:06:02;;;;;;;10.43;3.83;;;;;;;9.63;99.78;101083.56;5036176;28;20059;-65
2022/11/02 03:08:29;;;;;;;7.20;3.60;;;;;;;9.51;99.85;101078.91;5036612;28;20053;-65
2022/11/02 03:11:08;;;;;;;5.05;2.80;;;;;;;9.48;100.00;101088.72;5031397;28;20041;-63
2022/11/02 03:13:45;;;;;;;6.47;3.30;;;;;;;9.44;100.00;101088.00;5028008;28;20057;-64
2022/11/02 03:16:30;;;;;;;7.07;3.60;;;;;;;9.33;100.00;101085.03;5027390;28;20057;-64
2022/11/02 03:19:08;;;;;;;6.78;3.28;;;;;;;9.34;100.00;101082.31;5020841;28;20053;-63
2022/11/02 03:21:41;;;;;;;6.47;3.17;;;;;;;9.36;100.00;101079.63;5029259;28;20046;-63
2022/11/02 03:24:32;;;;;;;9.65;3.78;;;;;;;9.36;100.00;101076.97;5039226;28;20045;-63
2022/11/02 03:27:18;;;;;;;7.18;3.10;;;;;;;9.29;100.00;101081.69;5032602;28;20045;-63
2022/11/02 03:30:00;;;;;;;10.63;4.32;;;;;;;9.25;100.00;101087.16;5030714;28;20049;-65
2022/11/02 03:32:39;;;;;;;8.40;3.50;;;;;;;9.18;100.00;101083.94;5033911;28;20053;-64
2022/11/02 03:35:13;;;;;;;8.90;3.90;;;;;;;9.17;100.00;101090.13;5032835;28;20054;-63
2022/11/02 03:37:54;;;;;;;8.63;3.22;;;;;;;9.17;100.00;101089.28;5034067;28;20302;-64
2022/11/02 03:40:28;;;;;;;12.05;3.88;;;;;;;9.10;100.00;101086.94;5035946;28;20060;-64
2022/11/02 03:42:56;;;;;;;6.97;3.20;;;;;;;9.06;100.00;101079.28;5029682;28;20382;-62
2022/11/02 03:45:26;;;;;;;5.22;3.05;;;;;;;9.13;100.00;101086.78;5033329;28;20065;-64
2022/11/02 03:47:58;;;;;;;6.72;3.50;;;;;;;9.15;100.00;101091.97;5029541;28;20184;-64
2022/11/02 03:50:26;;;;;;;9.40;3.65;;;;;;;9.07;100.00;101092.31;5036899;28;20064;-63
2022/11/02 03:52:57;;;;;;;9.15;3.15;;;;;;;9.05;100.00;101099.44;5033908;28;20536;-64
2022/11/02 03:55:35;;;;;;;6.68;3.15;;;;;;;9.04;100.00;101088.97;5034903;28;20171;-64
2022/11/02 03:58:02;;;;;;;10.27;3.78;;;;;;;9.03;100.00;101087.28;5033821;28;20057;-64
2022/11/02 04:00:33;;;;;;;9.02;3.13;;;;;;;9.01;100.00;101086.50;5035598;28;20064;-63
2022/11/02 04:03:06;;;;;;;9.00;3.15;;;;;;;9.02;99.76;101091.69;5030195;28;20060;-65
2022/11/02 04:05:35;;;;;;;7.45;3.13;;;;;;;9.10;99.26;101089.56;5035216;28;20073;-64
2022/11/02 04:08:21;;;;;;;10.43;3.17;;;;;;;9.17;99.33;101090.13;5035067;28;20544;-64
2022/11/02 04:16:21;;;;;;;6.60;3.05;;;;;;;9.00;98.54;101084.78;5030956;28;20072;-65
2022/11/02 04:25:14;;;;;;;10.43;2.90;;;;;;;9.05;98.56;101078.41;5035111;28;20053;-61
2022/11/02 04:27:13;;;;;;;7.43;3.58;;;;;;;9.03;98.53;101082.88;5036008;28;20164;-61
2022/11/02 04:29:46;;;;;;;12.43;2.70;;;;;;;8.96;98.04;101081.47;5033891;28;20079;-63
2022/11/02 04:32:14;;;;;;;9.38;3.25;;;;;;;8.93;98.44;101081.59;5031893;28;20053;-62
2022/11/02 04:34:41;;;;;;;12.02;3.67;;;;;;;8.88;98.71;101078.31;5028123;28;20505;-64
2022/11/02 04:38:39;;;;;;;9.43;3.10;;;;;;;8.82;99.19;101087.28;5032111;28;20049;-64
2022/11/02 04:40:00;;;;;;;9.20;2.90;;;;;;;8.85;99.25;101078.44;5031302;28;20083;-64
2022/11/02 04:42:27;;;;;;;8.00;2.45;;;;;;;8.86;99.07;101083.63;5028504;28;20050;-65
2022/11/02 04:44:54;;;;;;;7.85;2.70;;;;;;;8.75;98.62;101082.41;5026419;28;20057;-64
2022/11/02 04:47:23;;;;;;;6.28;2.33;;;;;;;8.77;99.02;101088.44;5032012;28;20053;-65
2022/11/02 04:49:53;;;;;;;11.52;2.55;;;;;;;8.72;98.44;101087.78;5032476;28;20040;-64
2022/11/02 04:52:20;;;;;;;7.32;2.53;;;;;;;8.66;99.18;101088.06;5027079;28;20060;-63
2022/11/02 04:54:47;;;;;;;6.53;2.50;;;;;;;8.63;99.37;101089.88;5029948;28;20052;-63
2022/11/02 04:57:14;;;;;;;9.82;3.00;;;;;;;8.67;98.77;101087.97;5034784;28;20075;-64
2022/11/02 04:59:41;;;;;;;14.25;4.00;;;;;;;8.62;99.27;101085.56;5027773;28;20057;-64
2022/11/02 05:02:08;;;;;;;7.72;2.88;;;;;;;8.61;99.12;101085.63;5031162;28;20056;-63
2022/11/02 05:04:36;;;;;;;7.13;2.63;;;;;;;8.57;99.27;101086.69;5030802;28;20132;-65
2022/11/02 05:07:05;;;;;;;10.43;3.20;;;;;;;8.51;99.77;101085.19;5022964;28;20058;-64
2022/11/02 05:09:32;;;;;;;8.70;3.08;;;;;;;8.53;99.82;101087.72;5030459;28;20049;-62
2022/11/02 05:12:00;;;;;;;7.43;2.63;;;;;;;8.49;99.66;101089.63;5032245;28;20421;-63
2022/11/02 05:14:27;;;;;;;7.70;2.60;;;;;;;8.50;99.12;101086.06;5026305;28;20128;-64
2022/11/02 05:16:55;;;;;;;12.35;2.50;;;;;;;8.49;99.91;101088.78;5027932;28;20072;-64
2022/11/02 05:19:22;;;;;;;5.60;2.90;;;;;;;8.47;99.43;101083.59;5030921;28;20087;-67
2022/11/02 05:21:49;;;;;;;12.80;2.60;;;;;;;8.40;99.86;101090.03;5026495;28;20124;-65
2022/11/02 05:24:16;;;;;;;8.10;2.55;;;;;;;8.34;100.00;101087.63;5029431;28;20056;-64
2022/11/02 05:26:43;;;;;;;14.32;2.67;;;;;;;8.37;100.00;101084.91;5027424;28;20144;-64
2022/11/02 05:29:15;;;;;;;7.57;2.92;;;;;;;8.29;100.00;101085.22;5030840;28;20042;-62
2022/11/02 05:31:42;;;;;;;11.43;3.13;;;;;;;8.30;100.00;101097.41;5031391;28;20049;-64
2022/11/02 05:34:10;;;;;;;14.15;2.63;;;;;;;8.33;100.00;101089.41;5028668;28;20128;-63
2022/11/02 05:36:37;;;;;;;7.30;1.80;;;;;;;8.40;100.00;101090.03;5030066;28;20057;-63
2022/11/02 05:39:04;;;;;;;7.55;3.40;;;;;;;8.46;100.00;101086.28;5029360;28;20528;-63
2022/11/02 05:41:31;;;;;;;10.60;2.90;;;;;;;8.47;99.55;101088.84;5030790;28;20617;-64
2022/11/02 05:43:58;;;;;;;10.57;2.60;;;;;;;8.50;99.24;101090.47;5031708;28;20053;-65
2022/11/02 05:46:25;;;;;;;8.27;2.30;;;;;;;8.50;98.66;101091.31;5029533;28;20410;-65
2022/11/02 05:48:52;;;;;;;11.65;2.47;;;;;;;8.41;99.37;101090.88;5026343;28;20516;-61
2022/11/02 05:51:19;;;;;;;8.05;2.40;;;;;;;8.40;99.63;101097.03;5030126;28;20061;-63
2022/11/02 05:53:47;;;;;;;9.75;2.90;;;;;;;8.43;99.14;101086.44;5030462;28;20049;-64
2022/11/02 05:56:14;;;;;;;9.80;2.78;;;;;;;8.42;99.38;101079.44;5029486;28;20572;-64
2022/11/02 05:58:46;;;;;;;10.00;2.75;;;;;;;8.40;99.26;101086.56;5028755;28;20055;-63
2022/11/02 06:01:13;;;;;;;8.68;2.97;;;;;;;8.38;98.96;101089.25;5031277;28;20049;-63
2022/11/02 06:03:41;;;;;;;9.45;2.63;;;;;;;8.43;99.35;101092.53;5031089;28;20152;-65
2022/11/02 06:06:09;;;;;;;9.25;3.13;;;;;;;8.50;98.16;101088.69;5030950;28;20129;-64
2022/11/02 06:08:37;;;;;;;8.68;2.45;;;;;;;8.47;98.37;101090.63;5027827;28;20067;-63
2022/11/02 06:11:09;;;;;;;10.27;2.85;;;;;;;8.44;98.55;101098.63;5031402;28;20053;-62
2022/11/02 06:13:57;;;;;;;10.40;3.05;;;;;;;8.49;98.74;101097.50;5016159;28;20041;-63
2022/11/02 06:16:24;;;;;;;10.30;2.78;;;;;;;8.52;97.63;101096.53;5023355;28;20057;-64
2022/11/02 06:18:51;;;;;;;7.68;2.50;;;;;;;8.50;98.39;101098.34;5029801;28;20618;-64
2022/11/02 06:21:19;;;;;;;12.18;2.50;;;;;;;8.56;97.37;101095.47;5028986;28;20406;-64
2022/11/02 06:23:47;;;;;;;12.65;2.65;;;;;;;8.54;97.65;101095.53;5030021;28;20068;-64
2022/11/02 06:26:14;;;;;;;9.48;2.90;;;;;;;8.60;96.93;101090.03;5030361;28;20054;-63
2022/11/02 06:28:41;;;;;;;8.50;3.05;;;;;;;8.66;96.87;101090.69;5029141;28;20501;-64
2022/11/02 06:31:08;;;;;;;7.93;2.42;;;;;;;8.63;96.92;101089.03;5028862;28;20030;-64
2022/11/02 06:33:35;;;;;;;10.50;3.05;;;;;;;8.61;97.13;101091.72;5031696;28;20473;-63
2022/11/02 06:36:03;;;;;;;7.03;2.17;;;;;;;8.59;97.01;101093.56;5029117;28;20057;-65
2022/11/02 06:38:30;;;;;;;7.75;3.22;;;;;;;8.56;97.32;101095.47;5028540;28;20056;-62
2022/11/02 06:41:01;;;;;;;11.45;3.15;;;;;;;8.57;97.75;101099.81;5029360;28;20048;-63
2022/11/02 06:43:29;;;;;;;8.13;2.67;;;;;;;8.58;97.83;101102.34;5030061;28;20068;-63
2022/11/02 06:45:57;;;;;;;7.97;2.55;;;;;;;8.59;98.14;101114.56;5034663;28;20393;-65
2022/11/02 06:48:25;;;;;;;11.75;3.13;;;;;;;8.60;97.59;101108.41;5032723;28;20057;-66
2022/11/02 06:51:01;;;;;;;10.27;2.80;;;;;;;8.62;97.85;101113.56;5031862;28;20669;-63
2022/11/02 06:53:28;;;;;;;10.52;2.70;;;;;;;8.66;97.46;101116.94;5036899;28;20057;-64
2022/11/02 06:55:56;;;;;;;14.05;2.55;;;;;;;8.68;97.75;101121.19;5030247;28;20045;-64
2022/11/02 06:58:24;;;;;;;13.35;2.28;;;;;;;8.70;97.53;101126.38;5032131;28;20053;-63
2022/11/02 07:00:59;;;;;;;7.43;2.58;;;;;;;8.72;97.81;101114.88;5036747;28;20409;-64
2022/11/02 07:03:27;;;;;;;7.25;2.47;;;;;;;8.77;96.84;101120.78;5025070;28;20056;-63
2022/11/02 07:05:54;;;;;;;11.75;2.53;;;;;;;8.73;97.70;101113.94;5038185;28;20892;-64
2022/11/02 07:08:22;;;;;;;7.40;2.55;;;;;;;8.76;97.74;101123.47;5032607;28;20056;-64
2022/11/02 07:10:49;;;;;;;8.20;2.75;;;;;;;8.73;97.60;101126.22;5034849;28;20057;-64
2022/11/02 07:13:16;;;;;;;7.45;2.50;;;;;;;8.71;98.28;101125.44;5023261;28;20130;-65
2022/11/02 07:15:44;;;;;;;10.75;2.05;;;;;;;8.74;98.44;101117.47;5027281;28;20087;-64
2022/11/02 07:18:11;;;;;;;7.55;2.95;;;;;;;8.80;97.70;101127.69;5030817;28;20061;-63
2022/11/02 07:20:39;;;;;;;11.48;2.70;;;;;;;8.84;97.85;101111.72;5030434;28;20132;-63
2022/11/02 07:23:06;;;;;;;18.70;4.43;;;;;;;8.89;97.14;101122.03;5026649;28;20045;-64
2022/11/02 07:25:34;;;;;;;10.40;2.72;;;;;;;8.88;97.28;101117.69;5027295;28;20057;-63
2022/11/02 07:28:02;;;;;;;10.13;2.70;;;;;;;8.88;97.80;101125.56;5027994;28;20060;-64
2022/11/02 07:30:30;;;;;;;8.07;2.85;;;;;;;8.91;97.88;101120.16;5029798;28;20172;-63
2022/11/02 07:32:57;;;;;;;14.07;3.10;;;;;;;9.02;96.69;101125.81;5030614;28;20042;-64
2022/11/02 07:35:25;;;;;;;12.48;3.15;;;;;;;9.11;96.50;101121.94;5026007;28;20061;-63
2022/11/02 07:37:56;;;;;;;13.00;3.03;;;;;;;9.16;96.14;101122.56;5028938;28;20658;-63
2022/11/02 07:40:23;;;;;;;9.68;2.80;;;;;;;9.17;96.22;101137.41;5029709;28;20064;-64
2022/11/02 07:42:52;;;;;;;10.32;3.03;;;;;;;9.19;96.64;101127.69;5029549;28;20077;-64
2022/11/02 07:45:21;;;;;;;9.73;2.90;;;;;;;9.25;96.45;101127.41;5024331;28;20069;-64
2022/11/02 07:47:48;;;;;;;13.02;3.10;;;;;;;9.33;96.41;101134.94;5027632;28;20046;-63
2022/11/02 07:50:18;;;;;;;9.98;2.72;;;;;;;9.39;96.16;101143.41;5029372;28;20115;-65
2022/11/02 07:52:47;;;;;;;17.85;3.50;;;;;;;9.52;95.38;101130.53;5021522;28;20053;-63
2022/11/02 07:55:16;;;;;;;8.25;2.60;;;;;;;9.60;95.19;101120.53;5031151;28;20067;-63
2022/11/02 07:57:51;;;;;;;10.45;2.40;;;;;;;9.71;94.91;101134.94;5028622;28;20057;-63
2022/11/02 08:00:18;;;;;;;7.45;2.50;;;;;;;9.81;94.54;101125.69;5027915;28;20507;-65
2022/11/02 08:02:46;;;;;;;15.02;3.85;;;;;;;9.92;93.84;101127.81;5028887;28;20115;-63
2022/11/02 08:05:13;;;;;;;12.73;2.80;;;;;;;10.00;93.28;101128.31;5028618;28;20060;-63
2022/11/02 08:07:40;;;;;;;8.07;2.30;;;;;;;10.13;92.50;101122.38;5029610;28;20532;-63
2022/11/02 08:10:07;;;;;;;9.35;2.33;;;;;;;10.19;92.31;101125.63;5037480;28;20103;-64
2022/11/02 08:12:34;;;;;;;11.07;2.58;;;;;;;10.28;92.73;101133.94;5029404;28;20224;-63
2022/11/02 08:15:01;;;;;;;6.72;2.20;;;;;;;10.36;92.54;101138.84;5033034;28;20149;-63
2022/11/02 08:17:33;;;;;;;8.75;3.53;;;;;;;10.45;91.82;101140.16;5036230;28;20405;-63
2022/11/02 08:20:00;;;;;;;13.57;2.35;;;;;;;10.54;90.98;101126.53;5035044;28;20429;-63
2022/11/02 08:22:28;;;;;;;14.82;2.45;;;;;;;10.53;90.37;101130.91;5040369;28;20059;-63
2022/11/02 08:24:55;;;;;;;14.40;2.67;;;;;;;10.58;90.65;101128.06;5043470;28;20137;-62
2022/11/02 08:27:22;;;;;;;15.10;2.50;;;;;;;10.65;90.81;101119.78;5035464;28;20147;-62
2022/11/02 08:29:49;;;;;;;12.80;2.35;;;;;;;10.66;89.65;101133.78;5043753;28;20045;-62
2022/11/02 08:32:16;;;;;;;13.30;2.35;;;;;;;10.70;89.04;101142.38;5033967;28;20503;-63
2022/11/02 08:34:43;;;;;;;10.25;2.10;;;;;;;10.72;89.38;101135.28;5031212;28;20049;-63
2022/11/02 08:37:10;;;;;;;9.00;2.33;;;;;;;10.70;88.82;101147.66;5029406;28;20061;-63
2022/11/02 08:39:37;;;;;;;10.38;2.50;;;;;;;10.71;89.49;101136.19;5029961;28;20053;-63
2022/11/02 08:42:04;;;;;;;10.18;2.30;;;;;;;10.70;89.45;101143.22;5029807;28;20053;-63
2022/11/02 08:44:32;;;;;;;5.63;1.92;;;;;;;10.72;89.68;101136.13;5029101;28;20054;-63
2022/11/02 08:46:59;;;;;;;13.57;2.35;;;;;;;10.80;89.64;101138.34;5031842;28;20050;-63
2022/11/02 08:49:30;;;;;;;18.75;2.70;;;;;;;10.82;89.19;101142.63;5028826;28;20055;-63
2022/11/02 08:51:57;;;;;;;10.27;1.80;;;;;;;10.80;89.23;101146.25;5028658;28;20045;-62
2022/11/02 08:54:24;;;;;;;9.98;2.42;;;;;;;10.84;89.38;101142.53;5032992;28;20055;-62
2022/11/02 08:56:51;;;;;;;9.48;2.40;;;;;;;10.86;89.41;101132.78;5035455;28;20056;-62
2022/11/02 08:59:18;;;;;;;9.50;1.85;;;;;;;10.90;89.59;101137.81;5029995;28;20045;-63
2022/11/02 09:01:45;;;;;;;7.65;2.03;;;;;;;10.84;89.20;101137.25;5030717;28;20405;-63
2022/11/02 09:04:13;;;;;;;8.43;2.20;;;;;;;10.85;90.27;101144.22;5030026;28;20050;-63
2022/11/02 09:06:40;;;;;;;10.32;2.17;;;;;;;10.88;90.20;101141.44;5032237;28;20061;-63
2022/11/02 09:09:07;;;;;;;9.55;2.42;;;;;;;10.87;90.17;101140.59;5029975;28;20502;-63
2022/11/02 09:11:34;;;;;;;9.93;2.53;;;;;;;10.92;89.66;101140.34;5032322;28;20055;-63
2022/11/02 09:14:01;;;;;;;7.10;2.22;;;;;;;10.99;89.49;101144.38;5030324;28;20038;-63
2022/11/02 09:16:29;;;;;;;11.10;2.15;;;;;;;11.04;89.31;101138.88;5030539;28;20132;-64
2022/11/02 09:18:56;;;;;;;13.00;2.55;;;;;;;11.15;89.41;101141.78;5028896;28;20049;-64
2022/11/02 09:21:23;;;;;;;9.25;1.90;;;;;;;11.22;88.95;101134.41;5030021;28;20049;-64
2022/11/02 09:23:52;;;;;;;8.57;2.30;;;;;;;11.23;88.16;101134.31;5026461;28;20048;-64
2022/11/02 09:26:19;;;;;;;15.65;2.38;;;;;;;11.26;88.28;101143.84;5034135;28;21087;-63
2022/11/02 09:28:46;;;;;;;8.35;2.10;;;;;;;11.32;88.52;101144.38;5029744;28;20500;-64
2022/11/02 09:31:13;;;;;;;12.88;2.72;;;;;;;11.43;88.64;101133.22;5028369;28;20057;-64
2022/11/02 09:33:40;;;;;;;11.27;2.35;;;;;;;11.55;87.64;101143.13;5032093;28;20129;-63
2022/11/02 09:36:08;;;;;;;18.48;2.72;;;;;;;11.63;87.21;101147.97;5032353;28;20140;-64
2022/11/02 09:38:35;;;;;;;14.25;2.40;;;;;;;11.71;86.47;101142.25;5032058;28;20045;-63
2022/11/02 09:41:12;;;;;;;11.77;2.33;;;;;;;11.82;86.20;101147.81;5032137;28;20136;-63
2022/11/02 09:44:04;;;;;;;14.55;2.30;;;;;;;11.89;85.94;101139.50;5033008;28;20406;-63
2022/11/02 09:46:40;;;;;;;13.48;2.55;;;;;;;11.99;85.64;101155.66;5031542;28;20049;-63
2022/11/02 09:49:17;;;;;;;10.32;2.38;;;;;;;12.12;84.77;101145.25;5033920;28;20133;-64
2022/11/02 09:51:58;;;;;;;9.40;2.30;;;;;;;12.23;84.80;101148.13;5034202;28;20057;-64
2022/11/02 09:54:32;;;;;;;11.63;2.50;;;;;;;12.30;84.44;101140.72;5033216;28;20408;-63
2022/11/02 09:57:04;;;;;;;8.27;1.90;;;;;;;12.38;83.96;101143.75;5034242;28;20051;-64
2022/11/02 09:59:31;;;;;;;11.50;3.33;;;;;;;12.48;83.04;101149.38;5026988;28;20061;-64
2022/11/02 10:02:24;;;;;;;16.75;2.20;;;;;;;12.59;81.81;101155.69;5030259;28;20064;-64
2022/11/02 10:05:06;;;;;;;9.82;2.30;;;;;;;12.64;80.35;101155.44;5030484;28;20052;-63
2022/11/02 10:07:57;;;;;;;19.90;2.80;;;;;;;12.71;78.62;101154.13;5028567;28;20152;-63
2022/11/02 10:10:36;;;;;;;10.82;2.47;;;;;;;12.83;79.05;101144.59;5030452;28;20427;-64
2022/11/02 10:13:32;;;;;;;19.42;2.22;;;;;;;12.86;77.73;101155.00;5036724;28;20073;-63
2022/11/02 10:16:00;;;;;;;;;;;;;;;12.89;76.84;101175.97;5033348;28;20056;-63
2022/11/02 10:18:28;;;;;;;6.22;1.80;;;;;;;13.00;77.39;101157.66;5029850;28;19975;-62
2022/11/02 10:21:03;;;;;;;9.13;2.28;;;;;;;13.14;76.49;101175.31;5031727;28;20083;-62
2022/11/02 10:23:34;;;;;;;12.48;2.00;;;;;;;13.27;75.35;101156.94;5031938;28;20064;-63
2022/11/02 10:26:02;;;;;;;7.75;1.75;;;;;;;13.25;74.56;101153.56;5036448;28;20041;-65
2022/11/02 10:28:32;;;;;;;14.02;1.83;;;;;;;13.33;74.37;101157.44;5027170;28;20056;-63
2022/11/02 10:31:01;;;;;;;8.43;2.08;;;;;;;13.42;74.06;101161.31;5033979;28;20045;-63
2022/11/02 10:33:29;;;;;;;7.97;2.40;;;;;;;13.43;73.74;101158.56;5034876;28;20078;-63
2022/11/02 10:36:20;;;;;;;10.60;2.42;;;;;;;13.59;72.18;101165.53;5033288;28;20045;-63
2022/11/02 10:39:12;;;;;;;11.38;2.10;;;;;;;13.59;71.61;101166.38;5027743;28;20056;-62
2022/11/02 10:41:45;;;;;;;13.43;2.45;;;;;;;13.72;71.78;101163.81;5034409;28;20060;-63
2022/11/02 10:44:26;;;;;;;9.93;2.20;;;;;;;13.76;71.73;101162.66;5031992;28;20062;-63
2022/11/02 10:47:03;;;;;;;10.25;1.98;;;;;;;14.13;71.30;101147.06;5027290;28;20045;-63
2022/11/02 10:50:01;;;;;;;11.13;1.80;;;;;;;14.48;69.23;101152.69;5031430;28;20057;-63
2022/11/02 10:52:34;;;;;;;14.30;2.33;;;;;;;14.77;67.70;101161.34;5033334;28;20521;-63
2022/11/02 10:55:03;;;;;;;8.43;1.65;;;;;;;14.81;65.91;101162.81;5029903;28;20049;-63
2022/11/02 10:57:31;;;;;;;9.70;2.30;;;;;;;14.81;66.03;101164.63;5029466;28;20145;-63
2022/11/02 11:00:23;;;;;;;9.40;2.08;;;;;;;14.88;65.70;101160.63;5014547;28;20405;-62
2022/11/02 11:03:14;;;;;;;13.57;2.95;;;;;;;14.93;65.04;101174.41;5035187;28;20048;-62
2022/11/02 11:05:54;;;;;;;13.85;2.17;;;;;;;15.07;63.80;101205.25;5032309;28;20054;-63
2022/11/02 11:08:27;;;;;;;11.75;2.88;;;;;;;15.10;63.59;101158.19;5034023;28;20053;-63
2022/11/02 11:10:54;;;;;;;10.65;2.50;;;;;;;15.23;62.70;101167.94;5030246;28;20471;-64
2022/11/02 11:13:22;;;;;;;10.25;2.13;;;;;;;15.41;62.21;101175.47;5031361;28;20785;-64
2022/11/02 11:16:09;;;;;;;10.55;2.45;;;;;;;15.62;61.43;101164.25;5036693;28;20045;-64
2022/11/02 11:18:48;;;;;;;16.92;2.90;;;;;;;15.76;60.78;101184.53;5032061;28;20067;-64
2022/11/02 11:21:38;;;;;;;17.85;3.00;;;;;;;15.63;60.48;101180.09;5032047;28;20049;-64
2022/11/02 11:24:19;;;;;;;9.35;2.67;;;;;;;15.58;60.67;101213.19;5035300;28;20056;-64
2022/11/02 11:27:01;;;;;;;14.75;2.10;;;;;;;15.55;60.87;101187.75;5035449;28;20052;-64
2022/11/02 11:29:33;;;;;;;23.65;3.10;;;;;;;15.55;61.56;101190.41;5029721;28;20410;-64
2022/11/02 11:32:01;;;;;;;17.75;2.83;;;;;;;15.55;61.45;101187.75;5033835;28;20053;-64
2022/11/02 11:34:33;;;;;;;11.68;2.88;;;;;;;15.28;61.15;101195.00;5025771;28;20048;-64
2022/11/02 11:37:05;;;;;;;11.88;1.90;;;;;;;15.11;61.92;101202.31;5032945;28;20576;-64
2022/11/02 11:39:33;;;;;;;10.40;2.50;;;;;;;15.04;61.34;101193.09;5029308;28;20528;-64
2022/11/02 11:42:02;;;;;;;12.50;3.00;;;;;;;14.87;62.53;101191.56;5034974;28;20049;-64
2022/11/02 11:44:29;;;;;;;11.02;2.10;;;;;;;14.82;62.87;101195.50;5031677;28;20145;-64
2022/11/02 11:46:57;;;;;;;10.50;1.90;;;;;;;14.74;62.58;101195.16;5030771;28;20150;-64
2022/11/02 11:49:29;;;;;;;10.88;2.47;;;;;;;14.71;63.29;101196.19;5032546;28;20314;-64
2022/11/02 11:52:20;;;;;;;12.85;2.25;;;;;;;14.51;62.98;101191.41;5028463;28;20053;-63